< < Back
Terminal Aerodrome Forecast


Current Version              Previous Versions:   1  2  3  4  5  6  7  8  9  

Terminal Aerodrome Forecast

925
FTUS42 KGSP 301400 AAA
TAFCLT
TAF AMD
KCLT 301403Z 3014/3112 02012G18KT P6SM SKC
     FM301600 34008KT P6SM SCT060
     FM302000 34004KT P6SM SCT060=

Latest METAR

410
SAUS70 KWBC 302100 RRA
MTRCLT
METAR KCLT 302052Z VRB03KT 10SM SCT050 BKN250 29/14 A3004 RMK AO2 SLP164
T02890144 58012


USA.gov is the U.S. government's official web portal to all federal, state and local government web resources and services.